Time;durP1;ratioP1;P1;durP2;ratioP2;P2;SDS_P1;SDS_P2;PMS_P1;PMS_P2;Temp;Humidity;BMP_temperature;BMP_pressure;BME280_temperature;BME280_humidity;BME280_pressure;Samples;Min_cycle;Max_cycle;Signal;HPM_P1;HPM_P2
2023/06/29 00:01:02;;;;;;;4.55;2.80;;;17.10;99.90;;;;;;5058857;28;20037;-45
2023/06/29 00:03:28;;;;;;;8.43;3.03;;;17.00;99.90;;;;;;5069308;28;20025;-48
2023/06/29 00:05:55;;;;;;;4.40;3.15;;;16.90;99.90;;;;;;5067127;28;20028;-48
2023/06/29 00:08:35;;;;;;;8.00;3.20;;;16.80;99.90;;;;;;5044936;28;20508;-47
2023/06/29 00:11:04;;;;;;;5.20;2.63;;;16.90;99.90;;;;;;5051407;28;20032;-47
2023/06/29 00:13:30;;;;;;;11.95;3.40;;;17.10;99.90;;;;;;5050544;28;20493;-45
2023/06/29 00:15:55;;;;;;;4.72;3.00;;;17.20;99.90;;;;;;5050042;28;20115;-46
2023/06/29 00:18:23;;;;;;;6.68;3.08;;;17.30;99.90;;;;;;5050515;28;20049;-48
2023/06/29 00:20:51;;;;;;;9.48;3.30;;;17.40;99.90;;;;;;5050062;28;20114;-47
2023/06/29 00:23:17;;;;;;;7.68;3.88;;;17.40;99.90;;;;;;5015180;28;20400;-48
2023/06/29 00:25:44;;;;;;;6.07;2.97;;;17.40;99.90;;;;;;5049757;28;20021;-47
2023/06/29 00:28:10;;;;;;;5.07;3.08;;;17.40;99.90;;;;;;5033190;28;20152;-46
2023/06/29 00:30:36;;;;;;;7.45;3.30;;;17.40;99.90;;;;;;5033949;28;20131;-46
2023/06/29 00:33:02;;;;;;;6.78;2.95;;;17.40;99.90;;;;;;5050293;28;20119;-48
2023/06/29 00:35:27;;;;;;;4.72;2.88;;;17.30;99.90;;;;;;4999735;28;20174;-46
2023/06/29 00:37:53;;;;;;;5.75;3.20;;;17.20;99.90;;;;;;5049470;28;20030;-46
2023/06/29 00:40:19;;;;;;;5.22;3.00;;;17.10;99.90;;;;;;5062630;28;20037;-46
2023/06/29 00:42:44;;;;;;;6.75;3.00;;;16.80;99.90;;;;;;5060468;28;20163;-47
2023/06/29 00:45:10;;;;;;;7.97;3.30;;;16.70;99.90;;;;;;5078985;28;20036;-46
2023/06/29 00:47:36;;;;;;;5.93;2.97;;;16.70;99.90;;;;;;5063927;28;20025;-46
2023/06/29 00:50:03;;;;;;;6.80;3.10;;;16.50;99.90;;;;;;5060412;28;20142;-45
2023/06/29 00:52:30;;;;;;;3.72;2.35;;;16.40;99.90;;;;;;5040810;28;20035;-45
2023/06/29 00:54:58;;;;;;;4.15;3.15;;;16.20;99.90;;;;;;5064558;28;20146;-48
2023/06/29 00:57:24;;;;;;;3.80;2.53;;;16.00;99.90;;;;;;5063800;28;20032;-49
2023/06/29 00:59:50;;;;;;;3.97;2.72;;;16.10;99.90;;;;;;5062946;28;20547;-45
2023/06/29 01:02:17;;;;;;;8.80;2.80;;;16.10;99.90;;;;;;5048848;28;20044;-48
2023/06/29 01:04:47;;;;;;;8.25;3.05;;;16.20;99.90;;;;;;5063785;28;20404;-47
2023/06/29 01:07:39;;;;;;;4.53;3.00;;;16.30;99.90;;;;;;5061782;28;20120;-45
2023/06/29 01:10:09;;;;;;;4.20;2.75;;;16.50;99.90;;;;;;5056347;28;20033;-48
2023/06/29 01:12:35;;;;;;;5.43;2.92;;;16.60;99.90;;;;;;5062616;28;20091;-47
2023/06/29 01:15:02;;;;;;;4.10;2.40;;;16.80;99.90;;;;;;5047506;28;20530;-46
2023/06/29 01:17:30;;;;;;;7.50;3.25;;;16.90;99.90;;;;;;5062963;28;20056;-47
2023/06/29 01:19:57;;;;;;;6.80;2.95;;;16.90;99.90;;;;;;5062166;28;20043;-45
2023/06/29 01:22:41;;;;;;;4.50;2.45;;;17.00;99.90;;;;;;5065520;28;20045;-47
2023/06/29 01:25:07;;;;;;;3.60;2.85;;;17.00;99.90;;;;;;5065310;28;20025;-47
2023/06/29 01:27:33;;;;;;;4.25;2.75;;;17.00;99.90;;;;;;5060323;28;20103;-46
2023/06/29 01:30:00;;;;;;;3.50;2.63;;;17.10;99.90;;;;;;5046270;28;20036;-46
2023/06/29 01:32:33;;;;;;;6.45;2.58;;;17.00;99.90;;;;;;5057697;28;20037;-48
2023/06/29 01:35:00;;;;;;;4.47;2.70;;;16.90;99.90;;;;;;5062003;28;20039;-45
2023/06/29 01:37:30;;;;;;;4.72;2.83;;;16.80;99.90;;;;;;5057582;28;20025;-46
2023/06/29 01:40:02;;;;;;;3.95;2.60;;;16.90;99.90;;;;;;5058041;28;20086;-48
2023/06/29 01:42:30;;;;;;;4.00;3.00;;;17.00;99.90;;;;;;5070066;28;20037;-45
2023/06/29 01:44:57;;;;;;;4.55;2.53;;;17.00;99.90;;;;;;5059052;28;20023;-48
2023/06/29 01:47:24;;;;;;;4.32;3.00;;;17.00;99.90;;;;;;5060291;28;20029;-45
2023/06/29 01:49:50;;;;;;;6.47;2.92;;;16.90;99.90;;;;;;5045572;28;20152;-46
2023/06/29 01:52:16;;;;;;;5.13;3.83;;;17.00;99.90;;;;;;5043220;28;20511;-47
2023/06/29 01:54:42;;;;;;;6.13;2.75;;;17.00;99.90;;;;;;5066211;28;20032;-47
2023/06/29 01:57:08;;;;;;;4.93;3.17;;;17.00;99.90;;;;;;5066421;28;20528;-45
2023/06/29 01:59:34;;;;;;;6.07;2.88;;;16.90;99.90;;;;;;5072440;28;20033;-48
2023/06/29 02:01:59;;;;;;;4.88;2.80;;;16.90;99.90;;;;;;5065962;28;20032;-48
2023/06/29 02:04:25;;;;;;;3.28;2.38;;;16.90;99.90;;;;;;5061493;28;20025;-47
2023/06/29 02:06:51;;;;;;;6.28;3.00;;;17.00;99.90;;;;;;5061155;28;20071;-45
2023/06/29 02:09:17;;;;;;;3.95;2.45;;;17.00;99.90;;;;;;5058417;28;20029;-45
2023/06/29 02:11:43;;;;;;;6.82;2.67;;;16.70;99.90;;;;;;5064315;28;20067;-47
2023/06/29 02:14:08;;;;;;;4.45;2.88;;;16.60;99.90;;;;;;5058208;28;20028;-48
2023/06/29 02:16:34;;;;;;;4.85;3.03;;;16.60;99.90;;;;;;5064755;28;20116;-47
2023/06/29 02:19:00;;;;;;;6.03;2.85;;;16.70;99.90;;;;;;5061459;28;20047;-48
2023/06/29 02:21:26;;;;;;;5.03;2.35;;;16.80;99.90;;;;;;5060629;28;20545;-45
2023/06/29 02:23:51;;;;;;;4.60;2.60;;;16.80;99.90;;;;;;5061835;28;20029;-48
2023/06/29 02:26:17;;;;;;;3.95;2.47;;;16.90;99.90;;;;;;5076969;28;20098;-47
2023/06/29 02:28:43;;;;;;;7.97;2.97;;;16.90;99.90;;;;;;5056164;28;20032;-48
2023/06/29 02:31:08;;;;;;;4.40;2.90;;;16.90;99.90;;;;;;5062508;28;20035;-48
2023/06/29 02:33:37;;;;;;;5.18;2.38;;;16.80;99.90;;;;;;5061520;28;20035;-48
2023/06/29 02:36:09;;;;;;;5.65;2.63;;;16.70;99.90;;;;;;5064843;28;20119;-46
2023/06/29 02:38:44;;;;;;;4.85;2.38;;;16.60;99.90;;;;;;5007068;28;20052;-46
2023/06/29 02:41:13;;;;;;;3.88;2.78;;;16.60;99.90;;;;;;5051223;28;20036;-47
2023/06/29 02:44:09;;;;;;;4.88;2.95;;;16.50;99.90;;;;;;5050477;28;20036;-47
2023/06/29 02:46:35;;;;;;;8.35;3.13;;;16.40;99.90;;;;;;5067762;28;20826;-44
2023/06/29 02:49:00;;;;;;;4.82;2.15;;;16.30;99.90;;;;;;5067781;28;20056;-46
2023/06/29 02:51:26;;;;;;;8.57;2.83;;;16.00;99.90;;;;;;5068498;28;20583;-45
2023/06/29 02:53:52;;;;;;;4.28;2.75;;;15.90;99.90;;;;;;5034455;28;20032;-47
2023/06/29 02:56:17;;;;;;;5.47;2.90;;;15.80;99.90;;;;;;5066623;28;20049;-45
2023/06/29 02:58:43;;;;;;;9.00;2.88;;;15.80;99.90;;;;;;5067890;28;20036;-47
2023/06/29 03:01:09;;;;;;;4.68;2.60;;;16.00;99.90;;;;;;5068549;28;20397;-45
2023/06/29 03:03:38;;;;;;;4.30;2.72;;;16.10;99.90;;;;;;5067679;28;20055;-47
2023/06/29 03:06:03;;;;;;;4.50;2.78;;;16.10;99.90;;;;;;5068227;28;20040;-48
2023/06/29 03:08:29;;;;;;;5.03;2.38;;;16.00;99.90;;;;;;5034560;28;20037;-46
2023/06/29 03:10:55;;;;;;;5.05;2.55;;;15.80;99.90;;;;;;5067721;28;20431;-46
2023/06/29 03:13:20;;;;;;;6.20;3.05;;;15.70;99.90;;;;;;5059650;28;20028;-47
2023/06/29 03:15:46;;;;;;;4.38;2.65;;;15.80;99.90;;;;;;5055726;28;20033;-48
2023/06/29 03:18:12;;;;;;;8.65;2.83;;;16.00;99.90;;;;;;5079698;28;20178;-48
2023/06/29 03:20:38;;;;;;;3.45;2.40;;;16.20;99.90;;;;;;5028533;28;20083;-45
2023/06/29 03:23:03;;;;;;;5.25;2.80;;;16.30;99.90;;;;;;5048766;28;20420;-46
2023/06/29 03:25:29;;;;;;;4.25;2.45;;;16.40;99.90;;;;;;5059878;28;20104;-48
2023/06/29 03:27:56;;;;;;;4.78;2.85;;;16.50;99.90;;;;;;5053445;28;20025;-48
2023/06/29 03:30:21;;;;;;;4.55;2.67;;;16.40;99.90;;;;;;5066403;28;20484;-46
2023/06/29 03:32:47;;;;;;;3.72;2.28;;;16.50;99.90;;;;;;5061789;28;20111;-47
2023/06/29 03:35:13;;;;;;;6.00;2.72;;;16.40;99.90;;;;;;5064747;28;20024;-48
2023/06/29 03:37:39;;;;;;;7.40;2.65;;;16.40;99.90;;;;;;5022741;28;20029;-44
2023/06/29 03:40:05;;;;;;;4.05;3.10;;;16.30;99.90;;;;;;5039791;28;20041;-46
2023/06/29 03:42:31;;;;;;;3.47;2.55;;;16.20;99.90;;;;;;5033236;28;20029;-48
2023/06/29 03:44:56;;;;;;;11.40;2.75;;;16.00;99.90;;;;;;5042166;28;20048;-46
2023/06/29 03:47:22;;;;;;;6.57;3.00;;;16.00;99.90;;;;;;5063559;28;20040;-47
2023/06/29 03:49:48;;;;;;;6.40;2.88;;;16.10;99.90;;;;;;5061582;28;20048;-45
2023/06/29 03:52:34;;;;;;;4.70;3.30;;;16.00;99.90;;;;;;5052103;28;20033;-45
2023/06/29 03:54:59;;;;;;;7.75;2.63;;;15.90;99.90;;;;;;5062781;28;20028;-47
2023/06/29 03:57:31;;;;;;;5.93;3.25;;;16.10;99.90;;;;;;5063417;28;20039;-48
2023/06/29 04:00:06;;;;;;;9.60;2.95;;;16.20;99.90;;;;;;5047749;28;20053;-46
2023/06/29 04:02:32;;;;;;;8.02;3.38;;;16.20;99.90;;;;;;5019709;28;20119;-48
2023/06/29 04:04:57;;;;;;;10.05;2.80;;;16.30;99.90;;;;;;5053343;28;20123;-45
2023/06/29 04:07:23;;;;;;;5.22;3.28;;;16.60;99.90;;;;;;5064501;28;20044;-47
2023/06/29 04:09:49;;;;;;;6.03;2.50;;;16.80;99.90;;;;;;5062543;28;20025;-48
2023/06/29 04:12:15;;;;;;;6.90;2.75;;;16.90;99.90;;;;;;5085554;28;20044;-46
2023/06/29 04:14:41;;;;;;;5.28;2.80;;;17.10;99.90;;;;;;5062352;28;20028;-48
2023/06/29 04:17:06;;;;;;;6.90;2.72;;;17.20;99.90;;;;;;5068853;28;20039;-47
2023/06/29 04:19:33;;;;;;;8.75;3.10;;;17.30;99.90;;;;;;5060632;28;20045;-45
2023/06/29 04:21:58;;;;;;;4.90;2.67;;;17.40;99.90;;;;;;5042040;28;20043;-48
2023/06/29 04:24:24;;;;;;;5.60;2.70;;;17.50;99.90;;;;;;5059118;28;20120;-44
2023/06/29 04:26:50;;;;;;;5.38;3.30;;;17.60;99.90;;;;;;5060674;28;20029;-47
2023/06/29 04:29:16;;;;;;;6.70;3.55;;;17.70;99.90;;;;;;5051918;28;20037;-46
2023/06/29 04:31:41;;;;;;;7.13;3.80;;;17.80;99.90;;;;;;5066398;28;20040;-47
2023/06/29 04:34:07;;;;;;;7.32;3.67;;;17.80;99.90;;;;;;5058545;28;20074;-46
2023/06/29 04:36:33;;;;;;;6.50;4.03;;;17.70;99.90;;;;;;5056055;28;20469;-46
2023/06/29 04:39:00;;;;;;;7.63;4.55;;;17.80;99.90;;;;;;5041335;28;20091;-48
2023/06/29 04:41:32;;;;;;;8.63;4.25;;;17.70;99.90;;;;;;5044778;28;20052;-45
2023/06/29 04:43:59;;;;;;;7.88;4.18;;;17.80;99.90;;;;;;5060810;28;20576;-48
2023/06/29 04:46:27;;;;;;;6.32;4.13;;;18.00;99.90;;;;;;5046006;28;20124;-45
2023/06/29 04:48:53;;;;;;;8.13;4.47;;;18.20;99.90;;;;;;5062898;28;20116;-47
2023/06/29 04:51:19;;;;;;;9.20;4.47;;;18.20;99.90;;;;;;5057985;28;20032;-46
2023/06/29 04:53:45;;;;;;;6.22;4.32;;;18.30;99.90;;;;;;5058770;28;20028;-46
2023/06/29 04:56:12;;;;;;;6.95;4.10;;;18.40;99.90;;;;;;5067505;28;20542;-45
2023/06/29 04:58:37;;;;;;;9.35;4.25;;;18.40;99.90;;;;;;5085483;28;20049;-47
2023/06/29 05:01:03;;;;;;;9.63;4.18;;;18.50;99.90;;;;;;5062738;28;20025;-47
2023/06/29 05:03:29;;;;;;;10.13;4.43;;;18.70;99.90;;;;;;5030972;28;20033;-48
2023/06/29 05:05:55;;;;;;;8.30;4.70;;;18.70;99.90;;;;;;5058583;28;20068;-45
2023/06/29 05:08:20;;;;;;;6.80;4.82;;;18.80;99.90;;;;;;5080026;28;20044;-46
2023/06/29 05:10:46;;;;;;;6.70;4.07;;;18.90;99.90;;;;;;5059625;28;20071;-45
2023/06/29 05:13:13;;;;;;;7.95;3.97;;;19.00;99.90;;;;;;5065777;28;20016;-50
2023/06/29 05:15:40;;;;;;;6.72;4.10;;;19.20;99.90;;;;;;5050852;28;20041;-49
2023/06/29 05:18:05;;;;;;;7.05;3.95;;;19.20;99.90;;;;;;5050861;28;20052;-49
2023/06/29 05:20:31;;;;;;;6.93;3.85;;;19.30;99.90;;;;;;5081857;28;20041;-53
2023/06/29 05:22:57;;;;;;;6.82;4.10;;;19.30;99.90;;;;;;5059688;28;20382;-48
2023/06/29 05:25:23;;;;;;;6.75;4.13;;;19.20;99.90;;;;;;5063167;28;20034;-50
2023/06/29 05:27:48;;;;;;;8.70;4.53;;;19.20;99.90;;;;;;5066116;28;20021;-50
2023/06/29 05:30:16;;;;;;;6.75;4.20;;;19.30;99.90;;;;;;5016777;28;20072;-49
2023/06/29 05:32:42;;;;;;;7.63;4.45;;;19.50;99.90;;;;;;5064859;28;20028;-50
2023/06/29 05:35:07;;;;;;;6.70;4.00;;;19.60;99.90;;;;;;5001165;28;20037;-49
2023/06/29 05:37:36;;;;;;;12.43;4.00;;;19.90;99.90;;;;;;5062007;28;20039;-49
2023/06/29 05:40:02;;;;;;;6.22;3.60;;;20.00;99.90;;;;;;5054115;28;20514;-48
2023/06/29 05:42:27;;;;;;;6.50;3.97;;;20.10;99.90;;;;;;5070547;28;20037;-47
2023/06/29 05:44:55;;;;;;;6.68;3.90;;;20.10;99.90;;;;;;5072738;28;20024;-50
2023/06/29 05:47:21;;;;;;;8.60;4.35;;;20.20;99.90;;;;;;5072641;28;20472;-47
2023/06/29 05:49:46;;;;;;;9.93;4.68;;;20.30;99.90;;;;;;5070980;28;20043;-50
2023/06/29 05:52:12;;;;;;;7.30;4.18;;;20.40;99.90;;;;;;5072902;28;20035;-50
2023/06/29 05:54:38;;;;;;;7.68;4.13;;;20.40;99.90;;;;;;5072841;28;20028;-49
2023/06/29 05:57:04;;;;;;;7.57;4.45;;;20.50;99.90;;;;;;5053639;28;20036;-50
2023/06/29 05:59:30;;;;;;;5.68;3.10;;;20.60;99.90;;;;;;5072357;28;20068;-49
2023/06/29 06:01:56;;;;;;;4.97;3.47;;;20.60;99.90;;;;;;5072389;28;20189;-48
2023/06/29 06:04:22;;;;;;;7.43;3.95;;;20.70;99.90;;;;;;5072728;28;20028;-50
2023/06/29 06:06:47;;;;;;;6.05;4.03;;;20.80;99.90;;;;;;5072355;28;20508;-49
2023/06/29 06:09:13;;;;;;;9.63;3.80;;;21.00;99.90;;;;;;5072398;28;20460;-50
2023/06/29 06:11:39;;;;;;;5.88;3.20;;;21.30;99.90;;;;;;5072222;28;20496;-49
2023/06/29 06:14:04;;;;;;;4.35;3.00;;;21.30;99.90;;;;;;5072208;28;20025;-49
2023/06/29 06:16:30;;;;;;;5.95;3.50;;;21.30;99.90;;;;;;5072621;28;20365;-48
2023/06/29 06:18:56;;;;;;;4.82;3.13;;;21.20;99.90;;;;;;5072388;28;20154;-47
2023/06/29 06:21:23;;;;;;;4.68;2.70;;;21.30;99.90;;;;;;5072404;28;20419;-48
2023/06/29 06:23:49;;;;;;;3.58;2.38;;;21.40;99.90;;;;;;5053587;28;20102;-48
2023/06/29 06:26:15;;;;;;;3.17;2.17;;;21.50;99.90;;;;;;5052181;28;20040;-48
2023/06/29 06:28:41;;;;;;;6.10;2.80;;;21.60;99.90;;;;;;5069967;28;20028;-50
2023/06/29 06:31:06;;;;;;;3.88;2.58;;;21.70;99.90;;;;;;5072121;28;20033;-47
2023/06/29 06:33:32;;;;;;;3.08;2.13;;;21.80;99.90;;;;;;5053339;28;20043;-47
2023/06/29 06:35:59;;;;;;;5.03;2.78;;;21.80;99.90;;;;;;5072186;28;20477;-48
2023/06/29 06:38:25;;;;;;;5.90;2.50;;;21.70;99.90;;;;;;5053402;28;20131;-49
2023/06/29 06:40:51;;;;;;;4.20;3.00;;;21.90;99.90;;;;;;5072035;28;20114;-48
2023/06/29 06:43:17;;;;;;;7.05;2.63;;;21.80;99.90;;;;;;5036578;28;20535;-49
2023/06/29 06:45:44;;;;;;;6.55;2.92;;;21.80;99.90;;;;;;5072140;28;20131;-50
2023/06/29 06:48:10;;;;;;;3.47;2.45;;;;;;;;;;5071729;28;20028;-48
2023/06/29 06:50:35;;;;;;;3.60;2.33;;;22.00;99.90;;;;;;5051912;28;20048;-47
2023/06/29 06:53:01;;;;;;;4.30;2.50;;;22.00;99.90;;;;;;5070959;28;20029;-48
2023/06/29 06:55:27;;;;;;;5.30;2.92;;;22.10;99.90;;;;;;5052166;28;20548;-47
2023/06/29 06:57:53;;;;;;;3.92;2.67;;;22.30;99.90;;;;;;5071317;28;20029;-49
2023/06/29 07:00:19;;;;;;;4.15;2.70;;;22.30;99.90;;;;;;5071195;28;20050;-50
2023/06/29 07:02:45;;;;;;;3.72;2.75;;;22.50;99.90;;;;;;5069796;28;20463;-50
2023/06/29 07:05:11;;;;;;;4.40;2.10;;;22.40;99.90;;;;;;5070968;28;20059;-49
2023/06/29 07:07:36;;;;;;;5.75;2.75;;;22.70;99.90;;;;;;5070766;28;20472;-46
2023/06/29 07:10:04;;;;;;;3.45;2.15;;;;;;;;;;5071270;28;20035;-50
2023/06/29 07:12:30;;;;;;;3.28;1.90;;;22.70;99.90;;;;;;5071418;28;20341;-48
2023/06/29 07:14:55;;;;;;;4.75;2.03;;;22.70;99.90;;;;;;5071026;28;20051;-49
2023/06/29 07:17:21;;;;;;;2.13;1.55;;;22.50;99.90;;;;;;5071079;28;20021;-47
2023/06/29 07:19:47;;;;;;;3.47;2.00;;;22.60;99.90;;;;;;5070802;28;20127;-50
2023/06/29 07:22:12;;;;;;;2.70;1.85;;;22.70;99.90;;;;;;5074365;28;20447;-49
2023/06/29 07:24:38;;;;;;;2.78;1.98;;;22.60;99.90;;;;;;5074762;28;20085;-49
2023/06/29 07:27:04;;;;;;;3.75;2.25;;;22.90;99.90;;;;;;5055880;28;20067;-50
2023/06/29 07:29:30;;;;;;;2.67;1.80;;;23.30;99.90;;;;;;5039657;28;20036;-49
2023/06/29 07:31:56;;;;;;;4.25;2.17;;;;;;;;;;5056536;28;20036;-50
2023/06/29 07:34:25;;;;;;;4.72;2.22;;;23.30;99.90;;;;;;5073169;28;20036;-49
2023/06/29 07:36:51;;;;;;;4.40;1.83;;;23.70;99.90;;;;;;5075377;28;20035;-48
2023/06/29 07:39:17;;;;;;;4.00;2.25;;;;;;;;;;5056233;28;20091;-49
2023/06/29 07:41:43;;;;;;;3.38;2.22;;;23.60;99.90;;;;;;5075215;28;20020;-49
2023/06/29 07:44:09;;;;;;;4.22;2.10;;;23.50;99.90;;;;;;5075243;28;20020;-50
2023/06/29 07:46:35;;;;;;;4.47;2.58;;;23.90;99.90;;;;;;5075303;28;20431;-49
2023/06/29 07:49:01;;;;;;;3.38;2.25;;;23.60;99.90;;;;;;5074945;28;20400;-49
2023/06/29 07:51:32;;;;;;;4.30;2.38;;;23.70;99.90;;;;;;5075394;28;20029;-49
2023/06/29 07:54:00;;;;;;;5.10;2.28;;;24.00;99.90;;;;;;5075476;28;20043;-49
2023/06/29 07:56:28;;;;;;;5.63;1.98;;;24.00;99.90;;;;;;5074789;28;20024;-49
2023/06/29 07:58:53;;;;;;;4.05;2.60;;;24.20;99.90;;;;;;5075209;28;20064;-49
2023/06/29 08:01:19;;;;;;;5.15;2.17;;;24.00;99.90;;;;;;5074716;28;20063;-49
2023/06/29 08:03:45;;;;;;;2.60;1.90;;;;;;;;;;5074848;28;20074;-50
2023/06/29 08:06:11;;;;;;;3.05;1.90;;;;;;;;;;5074745;28;20028;-49
2023/06/29 08:08:38;;;;;;;5.30;2.33;;;;;;;;;;5022381;28;20045;-49
2023/06/29 08:11:04;;;;;;;3.85;2.08;;;;;;;;;;5074821;28;20082;-49
2023/06/29 08:13:30;;;;;;;6.00;2.30;;;;;;;;;;5074632;28;20020;-49
2023/06/29 08:15:56;;;;;;;4.80;2.22;;;;;;;;;;5074581;28;20020;-48
2023/06/29 08:18:22;;;;;;;2.75;2.03;;;;;;;;;;5074281;28;20029;-49
2023/06/29 08:20:49;;;;;;;2.65;1.90;;;;;;;;;;5074566;28;20024;-49
2023/06/29 08:23:15;;;;;;;5.43;2.38;;;;;;;;;;5074855;28;20032;-48
2023/06/29 08:25:41;;;;;;;2.83;1.60;;;;;;;;;;5074367;28;20537;-49
2023/06/29 08:28:07;;;;;;;3.33;1.98;;;25.40;99.90;;;;;;5074368;28;20037;-50
2023/06/29 08:30:33;;;;;;;2.47;1.80;;;;;;;;;;5074340;28;20028;-49
2023/06/29 08:32:59;;;;;;;2.85;2.10;;;25.60;99.90;;;;;;5074121;28;20032;-48
2023/06/29 08:35:25;;;;;;;3.42;2.22;;;;;;;;;;5074176;28;20040;-49
2023/06/29 08:37:51;;;;;;;4.95;2.17;;;25.90;99.90;;;;;;5055134;28;20036;-48
2023/06/29 08:40:21;;;;;;;3.63;1.80;;;25.90;99.90;;;;;;5074101;28;20031;-49
2023/06/29 09:18:22;;;;;;;4.93;1.65;;;;;;;;;;5101777;27;20957;-49
2023/06/29 09:20:56;;;;;;;4.10;1.50;;;27.00;99.90;;;;;;5087731;28;20028;-49
2023/06/29 09:23:28;;;;;;;1.90;1.20;;;;;;;;;;5089596;28;20024;-50
2023/06/29 09:25:56;;;;;;;2.78;1.30;;;27.50;99.90;;;;;;5088955;28;20052;-49
2023/06/29 09:28:22;;;;;;;1.73;1.08;;;;;;;;;;5075695;28;20079;-49
2023/06/29 09:30:49;;;;;;;1.60;1.20;;;;;;;;;;5077435;28;20031;-49
2023/06/29 09:33:16;;;;;;;2.88;1.42;;;;;;;;;;5070286;28;20098;-49
2023/06/29 09:35:50;;;;;;;1.70;1.27;;;27.70;99.90;;;;;;5088803;28;20024;-49
2023/06/29 09:38:16;;;;;;;2.30;1.30;;;27.60;99.90;;;;;;5089070;28;20031;-48
2023/06/29 09:40:46;;;;;;;1.50;1.00;;;;;;;;;;5087710;28;20028;-49
2023/06/29 09:43:16;;;;;;;2.72;1.25;;;;;;;;;;5086138;28;20086;-49
2023/06/29 09:45:43;;;;;;;2.20;1.50;;;;;;;;;;5088694;28;20477;-49
2023/06/29 09:48:11;;;;;;;1.20;0.95;;;;;;;;;;5089197;28;20036;-49
2023/06/29 09:50:40;;;;;;;2.00;1.10;;;;;;;;;;5088876;28;20032;-48
2023/06/29 09:53:09;;;;;;;2.78;1.15;;;;;;;;;;5088775;28;20052;-48
2023/06/29 09:55:38;;;;;;;2.40;1.10;;;;;;;;;;5085651;28;20036;-48
2023/06/29 09:58:04;;;;;;;1.45;1.10;;;;;;;;;;5088658;28;20059;-48
2023/06/29 10:00:32;;;;;;;1.77;1.42;;;;;;;;;;5088488;28;20036;-48
2023/06/29 10:02:59;;;;;;;2.15;1.25;;;;;;;;;;5088814;28;20052;-49
2023/06/29 10:05:25;;;;;;;0.98;0.82;;;;;;;;;;5088916;28;20032;-49
2023/06/29 10:07:53;;;;;;;1.55;1.10;;;;;;;;;;5084767;28;20032;-49
2023/06/29 10:10:20;;;;;;;0.95;0.82;;;;;;;;;;5088675;28;20028;-49
2023/06/29 10:12:49;;;;;;;1.30;1.13;;;;;;;;;;5088393;28;20062;-48
2023/06/29 10:15:15;;;;;;;0.95;0.90;;;;;;;;;;5088514;28;20043;-48
2023/06/29 10:17:46;;;;;;;1.13;1.00;;;;;;;;;;5079014;28;20044;-49
2023/06/29 10:20:14;;;;;;;0.95;0.93;;;;;;;;;;5073736;28;20071;-49
2023/06/29 10:22:41;;;;;;;1.27;1.02;;;;;;;;;;5075083;28;20035;-50
2023/06/29 10:25:08;;;;;;;3.17;1.20;;;;;;;;;;5074980;28;20103;-49
2023/06/29 10:27:35;;;;;;;2.22;1.30;;;;;;;;;;5038495;28;20045;-49
2023/06/29 10:30:05;;;;;;;3.83;1.30;;;;;;;;;;5072046;28;20380;-49
2023/06/29 10:32:32;;;;;;;2.00;1.25;;;;;;;;;;5030328;28;20033;-48
2023/06/29 10:35:09;;;;;;;2.40;1.00;;;;;;;;;;5025908;28;20532;-49
2023/06/29 10:37:38;;;;;;;1.63;1.17;;;30.20;95.10;;;;;;5032037;28;20037;-50
2023/06/29 10:40:17;;;;;;;1.63;1.27;;;;;;;;;;5048429;28;20030;-48
2023/06/29 10:42:43;;;;;;;1.55;1.02;;;;;;;;;;5041462;28;20041;-49
2023/06/29 10:45:18;;;;;;;1.80;1.08;;;30.60;99.90;;;;;;5034902;28;20035;-51
2023/06/29 10:47:56;;;;;;;1.85;1.27;;;30.30;99.90;;;;;;5034967;28;20041;-48
2023/06/29 10:50:29;;;;;;;1.35;1.00;;;30.30;99.90;;;;;;5051433;28;20021;-49
2023/06/29 10:53:05;;;;;;;7.88;1.60;;;30.10;99.90;;;;;;5051704;28;20033;-49
2023/06/29 10:55:42;;;;;;;4.03;1.20;;;30.30;99.90;;;;;;5048264;28;20033;-49
2023/06/29 10:58:15;;;;;;;4.82;1.08;;;;;;;;;;5051818;28;20037;-49
2023/06/29 11:00:41;;;;;;;2.28;1.20;;;;;;;;;;5051418;28;20087;-49
2023/06/29 11:03:08;;;;;;;1.92;1.20;;;;;;;;;;5059198;28;20041;-49
2023/06/29 11:05:35;;;;;;;2.42;1.30;;;;;;;;;;5074284;28;20523;-49
2023/06/29 11:08:01;;;;;;;1.48;1.20;;;29.30;99.90;;;;;;5067581;28;20048;-49
2023/06/29 11:10:27;;;;;;;1.90;1.15;;;;;;;;;;5073512;28;20417;-49
2023/06/29 11:12:56;;;;;;;1.70;0.95;;;;;;;;;;5071720;28;20041;-48
2023/06/29 11:15:23;;;;;;;2.28;1.30;;;;;;;;;;5073705;28;20021;-49
2023/06/29 11:17:50;;;;;;;1.70;1.48;;;;;;;;;;5070804;28;20048;-48
2023/06/29 11:20:17;;;;;;;1.52;1.08;;;;;;;;;;5073351;28;20107;-49
2023/06/29 11:22:43;;;;;;;4.15;1.02;;;;;;;;;;5073491;28;20490;-50
2023/06/29 11:25:14;;;;;;;3.70;1.30;;;;;;;;;;5073998;28;20032;-49
2023/06/29 11:27:40;;;;;;;3.42;1.20;;;;;;;;;;5073794;28;20036;-49
2023/06/29 11:30:09;;;;;;;2.28;1.35;;;;;;;;;;5069431;28;20039;-49
2023/06/29 11:32:35;;;;;;;1.48;1.25;;;;;;;;;;5049598;28;20175;-50
2023/06/29 11:35:02;;;;;;;2.63;1.27;;;;;;;;;;5034999;28;20064;-49
2023/06/29 11:37:28;;;;;;;1.67;1.00;;;;;;;;;;5062319;28;20029;-49
2023/06/29 11:39:54;;;;;;;1.33;1.10;;;;;;;;;;5060663;28;20388;-50
2023/06/29 11:42:22;;;;;;;1.75;0.90;;;;;;;;;;5058895;28;20036;-49
2023/06/29 11:45:01;;;;;;;1.73;1.20;;;;;;;;;;5070964;28;20025;-50
2023/06/29 11:47:27;;;;;;;1.88;1.10;;;30.30;99.90;;;;;;5066949;28;20170;-48
2023/06/29 11:49:55;;;;;;;1.85;1.00;;;30.10;99.90;;;;;;5062494;28;20028;-48
2023/06/29 11:52:21;;;;;;;2.33;1.15;;;29.90;97.20;;;;;;5063632;28;20384;-48
2023/06/29 11:54:47;;;;;;;1.70;1.60;;;30.20;97.50;;;;;;5064317;28;20035;-48
2023/06/29 11:57:17;;;;;;;2.20;1.42;;;30.10;96.60;;;;;;5072407;28;20020;-48
2023/06/29 11:59:45;;;;;;;2.40;1.20;;;30.00;95.70;;;;;;5073200;28;20041;-49
2023/06/29 12:02:11;;;;;;;2.22;1.20;;;29.60;93.80;;;;;;5072652;28;20036;-48
2023/06/29 12:04:37;;;;;;;2.63;1.48;;;;;;;;;;5072620;28;20416;-49
2023/06/29 12:07:03;;;;;;;1.90;1.30;;;;;;;;;;5069412;28;20051;-49
2023/06/29 12:09:30;;;;;;;3.13;0.82;;;;;;;;;;5065737;28;20021;-52
2023/06/29 12:12:00;;;;;;;1.52;1.10;;;;;;;;;;5052306;28;20017;-49
2023/06/29 12:14:28;;;;;;;1.67;1.30;;;;;;;;;;5052424;28;20029;-49
2023/06/29 12:16:54;;;;;;;3.63;1.40;;;;;;;;;;5052484;28;20056;-52
2023/06/29 12:19:21;;;;;;;1.65;1.17;;;;;;;;;;5066602;28;20032;-51
2023/06/29 12:21:47;;;;;;;1.05;0.95;;;;;;;;;;5072215;28;20025;-49
2023/06/29 12:24:16;;;;;;;0.98;0.98;;;29.80;99.90;;;;;;5072472;28;20078;-50
2023/06/29 12:26:42;;;;;;;1.35;1.00;;;;;;;;;;5072131;28;20043;-50
2023/06/29 12:29:09;;;;;;;1.77;1.17;;;;;;;;;;5068391;28;20097;-50
2023/06/29 12:31:36;;;;;;;2.10;1.42;;;;;;;;;;5034010;28;20053;-50
2023/06/29 12:34:02;;;;;;;1.65;1.00;;;;;;;;;;5072128;28;20484;-50
2023/06/29 12:36:28;;;;;;;2.15;1.13;;;;;;;;;;5058688;28;20037;-50
2023/06/29 12:38:54;;;;;;;2.30;1.02;;;;;;;;;;5029665;28;20037;-51
2023/06/29 12:41:21;;;;;;;1.20;1.10;;;;;;;;;;5052371;28;20032;-51
2023/06/29 12:43:47;;;;;;;6.43;1.20;;;;;;;;;;5070527;28;20033;-50
2023/06/29 12:46:13;;;;;;;2.42;0.85;;;;;;;;;;5071830;28;20040;-51
2023/06/29 12:48:39;;;;;;;1.77;1.50;;;;;;;;;;5072138;28;20043;-50
2023/06/29 12:51:06;;;;;;;4.78;1.55;;;;;;;;;;5072024;28;20024;-50
2023/06/29 12:53:35;;;;;;;2.25;1.50;;;;;;;;;;5068893;28;20033;-50
2023/06/29 12:56:01;;;;;;;1.52;1.10;;;;;;;;;;5071958;28;20451;-49
2023/06/29 12:58:27;;;;;;;1.55;1.17;;;;;;;;;;5064827;28;20472;-50
2023/06/29 13:00:53;;;;;;;4.95;1.63;;;;;;;;;;5051962;28;20060;-50
2023/06/29 13:03:19;;;;;;;2.80;1.20;;;;;;;;;;5055094;28;20032;-50
2023/06/29 13:05:49;;;;;;;1.90;0.90;;;;;;;;;;5052748;28;20036;-50
2023/06/29 13:08:16;;;;;;;2.22;1.17;;;;;;;;;;5071140;28;20119;-50
2023/06/29 13:10:42;;;;;;;2.22;1.00;;;;;;;;;;5069742;28;20472;-50
2023/06/29 13:13:08;;;;;;;2.65;1.10;;;;;;;;;;5071911;28;20024;-51
2023/06/29 13:15:34;;;;;;;1.55;0.75;;;;;;;;;;5069214;28;20036;-50
2023/06/29 13:18:00;;;;;;;1.65;0.90;;;;;;;;;;5052571;28;20060;-51
2023/06/29 13:20:27;;;;;;;1.20;0.98;;;;;;;;;;5052678;28;20051;-50
2023/06/29 13:22:53;;;;;;;2.67;1.92;;;;;;;;;;5053101;28;20040;-50
2023/06/29 13:25:19;;;;;;;1.95;0.95;;;;;;;;;;5069448;28;20081;-50
2023/06/29 13:27:46;;;;;;;1.50;1.17;;;;;;;;;;5069120;28;20242;-50
2023/06/29 13:30:16;;;;;;;1.75;1.20;;;;;;;;;;5071445;28;20036;-52
2023/06/29 13:32:42;;;;;;;1.00;0.90;;;;;;;;;;5071331;28;20128;-50
2023/06/29 13:35:08;;;;;;;1.70;1.05;;;;;;;;;;5071564;28;20063;-50
2023/06/29 13:37:34;;;;;;;1.85;1.10;;;31.10;92.00;;;;;;5068796;28;20035;-49
2023/06/29 13:39:59;;;;;;;1.63;1.20;;;31.00;92.50;;;;;;5067636;28;20033;-51
2023/06/29 13:42:25;;;;;;;1.52;0.95;;;30.90;92.00;;;;;;5069132;28;20029;-50
2023/06/29 13:44:51;;;;;;;1.63;0.88;;;30.50;91.50;;;;;;5020504;28;20050;-51
2023/06/29 13:47:19;;;;;;;1.95;0.88;;;30.40;91.90;;;;;;5051251;28;20492;-50
2023/06/29 13:49:45;;;;;;;3.97;1.25;;;29.80;91.30;;;;;;5058813;28;20451;-50
2023/06/29 13:52:11;;;;;;;2.90;1.55;;;29.40;91.50;;;;;;5058502;28;20036;-50
2023/06/29 13:54:37;;;;;;;1.65;1.15;;;29.50;91.70;;;;;;5051559;28;20036;-49